sensor_id;sensor_type;location;lat;lon;timestamp;P1;durP1;ratioP1;P2;durP2;ratioP2
61741;SDS011;47650;49.848;9.620;2024-02-21T00:00:12;17.30;;;5.68;;
61741;SDS011;47650;49.848;9.620;2024-02-21T00:02:40;16.25;;;5.00;;
61741;SDS011;47650;49.848;9.620;2024-02-21T00:05:05;14.73;;;5.03;;
61741;SDS011;47650;49.848;9.620;2024-02-21T00:07:30;13.38;;;4.25;;
61741;SDS011;47650;49.848;9.620;2024-02-21T00:09:55;13.02;;;5.90;;
61741;SDS011;47650;49.848;9.620;2024-02-21T00:12:22;13.43;;;4.43;;
61741;SDS011;47650;49.848;9.620;2024-02-21T00:14:47;21.02;;;5.20;;
61741;SDS011;47650;49.848;9.620;2024-02-21T00:17:14;14.50;;;4.85;;
61741;SDS011;47650;49.848;9.620;2024-02-21T00:19:39;14.50;;;4.97;;
61741;SDS011;47650;49.848;9.620;2024-02-21T00:22:04;11.43;;;4.10;;
61741;SDS011;47650;49.848;9.620;2024-02-21T00:24:30;17.13;;;5.15;;
61741;SDS011;47650;49.848;9.620;2024-02-21T00:26:55;17.13;;;5.10;;
61741;SDS011;47650;49.848;9.620;2024-02-21T00:29:20;14.75;;;4.28;;
61741;SDS011;47650;49.848;9.620;2024-02-21T00:31:47;16.08;;;5.18;;
61741;SDS011;47650;49.848;9.620;2024-02-21T00:34:13;16.50;;;5.15;;
61741;SDS011;47650;49.848;9.620;2024-02-21T00:36:38;16.77;;;5.15;;
61741;SDS011;47650;49.848;9.620;2024-02-21T00:39:03;14.55;;;4.93;;
61741;SDS011;47650;49.848;9.620;2024-02-21T00:41:31;19.33;;;4.25;;
61741;SDS011;47650;49.848;9.620;2024-02-21T00:43:56;13.80;;;5.22;;
61741;SDS011;47650;49.848;9.620;2024-02-21T00:46:21;14.10;;;5.43;;
61741;SDS011;47650;49.848;9.620;2024-02-21T00:48:47;18.00;;;5.20;;
61741;SDS011;47650;49.848;9.620;2024-02-21T00:51:13;12.88;;;5.28;;
61741;SDS011;47650;49.848;9.620;2024-02-21T00:53:39;16.27;;;4.78;;
61741;SDS011;47650;49.848;9.620;2024-02-21T00:56:05;16.45;;;4.93;;
61741;SDS011;47650;49.848;9.620;2024-02-21T00:58:30;15.18;;;4.95;;
61741;SDS011;47650;49.848;9.620;2024-02-21T01:00:56;16.42;;;5.13;;
61741;SDS011;47650;49.848;9.620;2024-02-21T01:03:22;14.20;;;4.68;;
61741;SDS011;47650;49.848;9.620;2024-02-21T01:05:47;18.02;;;4.85;;
61741;SDS011;47650;49.848;9.620;2024-02-21T01:08:13;11.73;;;4.40;;
61741;SDS011;47650;49.848;9.620;2024-02-21T01:10:38;15.48;;;4.82;;
61741;SDS011;47650;49.848;9.620;2024-02-21T01:13:03;18.83;;;4.47;;
61741;SDS011;47650;49.848;9.620;2024-02-21T01:15:30;12.23;;;4.72;;
61741;SDS011;47650;49.848;9.620;2024-02-21T01:17:55;14.93;;;5.00;;
61741;SDS011;47650;49.848;9.620;2024-02-21T01:20:20;20.08;;;5.35;;
61741;SDS011;47650;49.848;9.620;2024-02-21T01:22:47;17.00;;;5.13;;
61741;SDS011;47650;49.848;9.620;2024-02-21T01:25:12;19.50;;;5.47;;
61741;SDS011;47650;49.848;9.620;2024-02-21T01:27:37;15.32;;;4.57;;
61741;SDS011;47650;49.848;9.620;2024-02-21T01:30:03;18.33;;;5.13;;
61741;SDS011;47650;49.848;9.620;2024-02-21T01:32:29;15.68;;;5.43;;
61741;SDS011;47650;49.848;9.620;2024-02-21T01:34:54;18.02;;;5.10;;
61741;SDS011;47650;49.848;9.620;2024-02-21T01:37:20;14.55;;;4.93;;
61741;SDS011;47650;49.848;9.620;2024-02-21T01:39:45;14.43;;;5.15;;
61741;SDS011;47650;49.848;9.620;2024-02-21T01:42:10;13.90;;;4.78;;
61741;SDS011;47650;49.848;9.620;2024-02-21T01:44:35;14.38;;;5.93;;
61741;SDS011;47650;49.848;9.620;2024-02-21T01:47:03;16.90;;;5.32;;
61741;SDS011;47650;49.848;9.620;2024-02-21T01:49:28;16.02;;;5.15;;
61741;SDS011;47650;49.848;9.620;2024-02-21T01:51:54;17.40;;;6.07;;
61741;SDS011;47650;49.848;9.620;2024-02-21T01:54:22;11.95;;;4.72;;
61741;SDS011;47650;49.848;9.620;2024-02-21T01:56:47;15.35;;;5.65;;
61741;SDS011;47650;49.848;9.620;2024-02-21T01:59:13;16.10;;;4.88;;
61741;SDS011;47650;49.848;9.620;2024-02-21T02:01:40;13.57;;;4.57;;
61741;SDS011;47650;49.848;9.620;2024-02-21T02:04:06;15.20;;;4.95;;
61741;SDS011;47650;49.848;9.620;2024-02-21T02:06:32;18.75;;;5.43;;
61741;SDS011;47650;49.848;9.620;2024-02-21T02:08:57;18.40;;;5.15;;
61741;SDS011;47650;49.848;9.620;2024-02-21T02:11:23;15.80;;;5.40;;
61741;SDS011;47650;49.848;9.620;2024-02-21T02:13:48;12.35;;;4.70;;
61741;SDS011;47650;49.848;9.620;2024-02-21T02:16:14;16.45;;;5.60;;
61741;SDS011;47650;49.848;9.620;2024-02-21T02:18:40;19.38;;;5.28;;
61741;SDS011;47650;49.848;9.620;2024-02-21T02:21:07;14.65;;;5.43;;
61741;SDS011;47650;49.848;9.620;2024-02-21T02:23:47;16.98;;;5.35;;
61741;SDS011;47650;49.848;9.620;2024-02-21T02:26:13;15.45;;;5.10;;
61741;SDS011;47650;49.848;9.620;2024-02-21T02:28:38;17.27;;;5.28;;
61741;SDS011;47650;49.848;9.620;2024-02-21T02:31:04;14.32;;;5.25;;
61741;SDS011;47650;49.848;9.620;2024-02-21T02:33:30;15.63;;;5.70;;
61741;SDS011;47650;49.848;9.620;2024-02-21T02:35:55;21.35;;;5.82;;
61741;SDS011;47650;49.848;9.620;2024-02-21T02:38:21;14.88;;;5.47;;
61741;SDS011;47650;49.848;9.620;2024-02-21T02:40:47;14.48;;;5.22;;
61741;SDS011;47650;49.848;9.620;2024-02-21T02:43:13;15.73;;;5.68;;
61741;SDS011;47650;49.848;9.620;2024-02-21T02:45:38;15.90;;;5.90;;
61741;SDS011;47650;49.848;9.620;2024-02-21T02:48:04;18.25;;;5.38;;
61741;SDS011;47650;49.848;9.620;2024-02-21T02:50:29;17.95;;;5.90;;
61741;SDS011;47650;49.848;9.620;2024-02-21T02:52:55;17.60;;;5.47;;
61741;SDS011;47650;49.848;9.620;2024-02-21T02:55:20;14.88;;;5.53;;
61741;SDS011;47650;49.848;9.620;2024-02-21T02:57:46;17.55;;;6.82;;
61741;SDS011;47650;49.848;9.620;2024-02-21T03:00:11;16.10;;;5.68;;
61741;SDS011;47650;49.848;9.620;2024-02-21T03:02:39;15.40;;;5.80;;
61741;SDS011;47650;49.848;9.620;2024-02-21T03:05:14;20.35;;;5.72;;
61741;SDS011;47650;49.848;9.620;2024-02-21T03:07:41;16.83;;;5.30;;
61741;SDS011;47650;49.848;9.620;2024-02-21T03:10:07;15.90;;;5.75;;
61741;SDS011;47650;49.848;9.620;2024-02-21T03:12:33;19.17;;;5.50;;
61741;SDS011;47650;49.848;9.620;2024-02-21T03:14:58;20.83;;;6.70;;
61741;SDS011;47650;49.848;9.620;2024-02-21T03:17:24;18.92;;;6.00;;
61741;SDS011;47650;49.848;9.620;2024-02-21T03:19:50;20.23;;;6.63;;
61741;SDS011;47650;49.848;9.620;2024-02-21T03:22:15;17.80;;;6.40;;
61741;SDS011;47650;49.848;9.620;2024-02-21T03:24:41;32.08;;;6.95;;
61741;SDS011;47650;49.848;9.620;2024-02-21T03:27:10;15.07;;;5.28;;
61741;SDS011;47650;49.848;9.620;2024-02-21T03:29:36;15.10;;;5.47;;
61741;SDS011;47650;49.848;9.620;2024-02-21T03:32:01;13.20;;;5.47;;
61741;SDS011;47650;49.848;9.620;2024-02-21T03:34:26;15.25;;;5.32;;
61741;SDS011;47650;49.848;9.620;2024-02-21T03:36:53;18.05;;;6.35;;
61741;SDS011;47650;49.848;9.620;2024-02-21T03:39:19;14.20;;;5.22;;
61741;SDS011;47650;49.848;9.620;2024-02-21T03:41:46;14.32;;;5.53;;
61741;SDS011;47650;49.848;9.620;2024-02-21T03:44:11;13.45;;;5.05;;
61741;SDS011;47650;49.848;9.620;2024-02-21T03:46:38;18.55;;;5.78;;
61741;SDS011;47650;49.848;9.620;2024-02-21T03:49:03;14.75;;;5.53;;
61741;SDS011;47650;49.848;9.620;2024-02-21T03:51:30;14.55;;;5.40;;
61741;SDS011;47650;49.848;9.620;2024-02-21T03:53:55;15.25;;;5.57;;
61741;SDS011;47650;49.848;9.620;2024-02-21T03:56:20;15.25;;;5.88;;
61741;SDS011;47650;49.848;9.620;2024-02-21T03:58:45;15.18;;;4.95;;
61741;SDS011;47650;49.848;9.620;2024-02-21T04:01:11;17.17;;;6.25;;
61741;SDS011;47650;49.848;9.620;2024-02-21T04:03:40;15.10;;;5.20;;
61741;SDS011;47650;49.848;9.620;2024-02-21T04:06:07;13.63;;;5.65;;
61741;SDS011;47650;49.848;9.620;2024-02-21T04:08:33;18.67;;;6.47;;
61741;SDS011;47650;49.848;9.620;2024-02-21T04:10:58;17.38;;;6.95;;
61741;SDS011;47650;49.848;9.620;2024-02-21T04:13:25;21.95;;;8.25;;
61741;SDS011;47650;49.848;9.620;2024-02-21T04:15:51;23.65;;;9.88;;
61741;SDS011;47650;49.848;9.620;2024-02-21T04:18:17;15.70;;;7.03;;
61741;SDS011;47650;49.848;9.620;2024-02-21T04:20:42;18.88;;;8.98;;
61741;SDS011;47650;49.848;9.620;2024-02-21T04:23:10;23.00;;;8.73;;
61741;SDS011;47650;49.848;9.620;2024-02-21T04:25:36;19.67;;;8.07;;
61741;SDS011;47650;49.848;9.620;2024-02-21T04:28:01;21.20;;;8.05;;
61741;SDS011;47650;49.848;9.620;2024-02-21T04:30:27;21.33;;;7.70;;
61741;SDS011;47650;49.848;9.620;2024-02-21T04:32:53;19.45;;;7.65;;
61741;SDS011;47650;49.848;9.620;2024-02-21T04:35:18;18.75;;;7.45;;
61741;SDS011;47650;49.848;9.620;2024-02-21T04:37:44;20.00;;;7.70;;
61741;SDS011;47650;49.848;9.620;2024-02-21T04:40:09;23.30;;;7.97;;
61741;SDS011;47650;49.848;9.620;2024-02-21T04:42:35;21.27;;;7.40;;
61741;SDS011;47650;49.848;9.620;2024-02-21T04:45:02;20.88;;;7.18;;
61741;SDS011;47650;49.848;9.620;2024-02-21T04:47:30;17.75;;;6.72;;
61741;SDS011;47650;49.848;9.620;2024-02-21T04:49:55;21.90;;;7.30;;
61741;SDS011;47650;49.848;9.620;2024-02-21T04:52:21;18.92;;;5.97;;
61741;SDS011;47650;49.848;9.620;2024-02-21T04:54:49;16.63;;;6.75;;
61741;SDS011;47650;49.848;9.620;2024-02-21T04:57:15;21.27;;;6.85;;
61741;SDS011;47650;49.848;9.620;2024-02-21T04:59:43;17.90;;;6.80;;
61741;SDS011;47650;49.848;9.620;2024-02-21T05:02:09;19.33;;;7.03;;
61741;SDS011;47650;49.848;9.620;2024-02-21T05:04:36;22.85;;;7.13;;
61741;SDS011;47650;49.848;9.620;2024-02-21T05:07:03;19.00;;;6.95;;
61741;SDS011;47650;49.848;9.620;2024-02-21T05:09:29;20.67;;;7.22;;
61741;SDS011;47650;49.848;9.620;2024-02-21T05:11:54;21.17;;;8.90;;
61741;SDS011;47650;49.848;9.620;2024-02-21T05:14:19;15.80;;;7.25;;
61741;SDS011;47650;49.848;9.620;2024-02-21T05:16:45;20.05;;;6.68;;
61741;SDS011;47650;49.848;9.620;2024-02-21T05:19:10;17.67;;;6.95;;
61741;SDS011;47650;49.848;9.620;2024-02-21T05:21:35;17.13;;;6.65;;
61741;SDS011;47650;49.848;9.620;2024-02-21T05:24:01;18.95;;;5.97;;
61741;SDS011;47650;49.848;9.620;2024-02-21T05:26:28;19.23;;;7.13;;
61741;SDS011;47650;49.848;9.620;2024-02-21T05:28:54;13.55;;;6.28;;
61741;SDS011;47650;49.848;9.620;2024-02-21T05:31:20;15.80;;;5.85;;
61741;SDS011;47650;49.848;9.620;2024-02-21T05:33:46;17.83;;;6.97;;
61741;SDS011;47650;49.848;9.620;2024-02-21T05:36:13;16.45;;;5.70;;
61741;SDS011;47650;49.848;9.620;2024-02-21T05:38:38;17.60;;;6.00;;
61741;SDS011;47650;49.848;9.620;2024-02-21T05:41:04;18.83;;;6.43;;
61741;SDS011;47650;49.848;9.620;2024-02-21T05:43:30;14.88;;;5.93;;
61741;SDS011;47650;49.848;9.620;2024-02-21T05:45:55;18.95;;;5.95;;
61741;SDS011;47650;49.848;9.620;2024-02-21T05:48:23;15.32;;;5.95;;
61741;SDS011;47650;49.848;9.620;2024-02-21T05:50:49;16.83;;;5.68;;
61741;SDS011;47650;49.848;9.620;2024-02-21T05:53:14;20.02;;;7.15;;
61741;SDS011;47650;49.848;9.620;2024-02-21T05:55:40;18.17;;;6.75;;
61741;SDS011;47650;49.848;9.620;2024-02-21T05:58:05;17.23;;;6.72;;
61741;SDS011;47650;49.848;9.620;2024-02-21T06:00:31;16.63;;;6.28;;
61741;SDS011;47650;49.848;9.620;2024-02-21T06:02:58;20.63;;;7.60;;
61741;SDS011;47650;49.848;9.620;2024-02-21T06:05:25;17.98;;;7.60;;
61741;SDS011;47650;49.848;9.620;2024-02-21T06:07:52;22.50;;;7.70;;
61741;SDS011;47650;49.848;9.620;2024-02-21T06:10:17;22.55;;;8.65;;
61741;SDS011;47650;49.848;9.620;2024-02-21T06:12:43;24.02;;;8.98;;
61741;SDS011;47650;49.848;9.620;2024-02-21T06:15:08;21.27;;;8.38;;
61741;SDS011;47650;49.848;9.620;2024-02-21T06:17:34;20.98;;;8.70;;
61741;SDS011;47650;49.848;9.620;2024-02-21T06:19:59;23.00;;;8.82;;
61741;SDS011;47650;49.848;9.620;2024-02-21T06:22:24;24.25;;;8.98;;
61741;SDS011;47650;49.848;9.620;2024-02-21T06:24:50;20.10;;;8.93;;
61741;SDS011;47650;49.848;9.620;2024-02-21T06:27:15;23.63;;;8.48;;
61741;SDS011;47650;49.848;9.620;2024-02-21T06:29:41;17.00;;;7.97;;
61741;SDS011;47650;49.848;9.620;2024-02-21T06:32:08;17.38;;;7.53;;
61741;SDS011;47650;49.848;9.620;2024-02-21T06:34:34;17.30;;;7.47;;
61741;SDS011;47650;49.848;9.620;2024-02-21T06:37:00;17.45;;;7.30;;
61741;SDS011;47650;49.848;9.620;2024-02-21T06:39:25;18.33;;;7.75;;
61741;SDS011;47650;49.848;9.620;2024-02-21T06:41:50;17.70;;;7.15;;
61741;SDS011;47650;49.848;9.620;2024-02-21T06:44:17;14.00;;;6.57;;
61741;SDS011;47650;49.848;9.620;2024-02-21T06:46:43;20.98;;;12.05;;
61741;SDS011;47650;49.848;9.620;2024-02-21T06:49:09;21.58;;;7.38;;
61741;SDS011;47650;49.848;9.620;2024-02-21T06:51:40;21.20;;;8.38;;
61741;SDS011;47650;49.848;9.620;2024-02-21T06:54:07;20.38;;;6.32;;
61741;SDS011;47650;49.848;9.620;2024-02-21T06:56:32;21.50;;;6.35;;
61741;SDS011;47650;49.848;9.620;2024-02-21T06:58:57;15.13;;;5.70;;
61741;SDS011;47650;49.848;9.620;2024-02-21T07:01:30;15.18;;;5.90;;
61741;SDS011;47650;49.848;9.620;2024-02-21T07:04:00;19.23;;;6.95;;
61741;SDS011;47650;49.848;9.620;2024-02-21T07:06:25;18.20;;;8.48;;
61741;SDS011;47650;49.848;9.620;2024-02-21T07:08:50;19.08;;;6.40;;
61741;SDS011;47650;49.848;9.620;2024-02-21T07:11:16;21.13;;;6.53;;
61741;SDS011;47650;49.848;9.620;2024-02-21T07:13:41;16.30;;;5.70;;
61741;SDS011;47650;49.848;9.620;2024-02-21T07:16:07;14.48;;;5.93;;
61741;SDS011;47650;49.848;9.620;2024-02-21T07:18:33;14.15;;;6.07;;
61741;SDS011;47650;49.848;9.620;2024-02-21T07:20:59;15.18;;;6.03;;
61741;SDS011;47650;49.848;9.620;2024-02-21T07:23:31;15.43;;;6.38;;
61741;SDS011;47650;49.848;9.620;2024-02-21T07:25:56;13.00;;;5.55;;
61741;SDS011;47650;49.848;9.620;2024-02-21T07:28:27;15.90;;;5.88;;
61741;SDS011;47650;49.848;9.620;2024-02-21T07:30:52;15.13;;;5.00;;
61741;SDS011;47650;49.848;9.620;2024-02-21T07:33:18;12.52;;;4.82;;
61741;SDS011;47650;49.848;9.620;2024-02-21T07:35:43;14.40;;;4.75;;
61741;SDS011;47650;49.848;9.620;2024-02-21T07:38:10;16.17;;;6.22;;
61741;SDS011;47650;49.848;9.620;2024-02-21T07:40:37;14.88;;;5.63;;
61741;SDS011;47650;49.848;9.620;2024-02-21T07:43:04;14.25;;;5.20;;
61741;SDS011;47650;49.848;9.620;2024-02-21T07:45:29;15.25;;;5.38;;
61741;SDS011;47650;49.848;9.620;2024-02-21T07:47:54;12.35;;;4.63;;
61741;SDS011;47650;49.848;9.620;2024-02-21T07:50:20;14.05;;;4.68;;
61741;SDS011;47650;49.848;9.620;2024-02-21T07:52:55;12.68;;;4.80;;
61741;SDS011;47650;49.848;9.620;2024-02-21T07:55:27;16.45;;;4.88;;
61741;SDS011;47650;49.848;9.620;2024-02-21T07:57:52;13.73;;;4.60;;
61741;SDS011;47650;49.848;9.620;2024-02-21T08:00:20;11.00;;;4.53;;
61741;SDS011;47650;49.848;9.620;2024-02-21T08:02:48;12.35;;;4.20;;
61741;SDS011;47650;49.848;9.620;2024-02-21T08:05:13;13.90;;;4.32;;
61741;SDS011;47650;49.848;9.620;2024-02-21T08:07:39;12.40;;;4.53;;
61741;SDS011;47650;49.848;9.620;2024-02-21T08:10:06;13.35;;;4.28;;
61741;SDS011;47650;49.848;9.620;2024-02-21T08:12:35;12.45;;;4.00;;
61741;SDS011;47650;49.848;9.620;2024-02-21T08:15:02;7.93;;;3.90;;
61741;SDS011;47650;49.848;9.620;2024-02-21T08:17:33;13.43;;;5.28;;
61741;SDS011;47650;49.848;9.620;2024-02-21T08:19:58;9.40;;;3.75;;
61741;SDS011;47650;49.848;9.620;2024-02-21T08:22:24;8.95;;;3.65;;
61741;SDS011;47650;49.848;9.620;2024-02-21T08:24:49;11.25;;;4.20;;
61741;SDS011;47650;49.848;9.620;2024-02-21T08:27:14;11.38;;;4.90;;
61741;SDS011;47650;49.848;9.620;2024-02-21T08:29:40;10.23;;;4.05;;
61741;SDS011;47650;49.848;9.620;2024-02-21T08:32:05;10.95;;;3.90;;
61741;SDS011;47650;49.848;9.620;2024-02-21T08:34:31;10.70;;;4.75;;
61741;SDS011;47650;49.848;9.620;2024-02-21T08:36:58;12.15;;;4.40;;
61741;SDS011;47650;49.848;9.620;2024-02-21T08:39:24;11.45;;;4.70;;
61741;SDS011;47650;49.848;9.620;2024-02-21T08:41:53;16.27;;;4.95;;
61741;SDS011;47650;49.848;9.620;2024-02-21T08:44:18;12.75;;;4.90;;
61741;SDS011;47650;49.848;9.620;2024-02-21T08:46:44;13.15;;;4.50;;
61741;SDS011;47650;49.848;9.620;2024-02-21T08:49:10;11.60;;;4.88;;
61741;SDS011;47650;49.848;9.620;2024-02-21T08:51:35;12.30;;;5.07;;
61741;SDS011;47650;49.848;9.620;2024-02-21T08:54:02;15.02;;;5.20;;
61741;SDS011;47650;49.848;9.620;2024-02-21T08:56:29;13.40;;;5.28;;
61741;SDS011;47650;49.848;9.620;2024-02-21T08:58:55;13.63;;;4.88;;
61741;SDS011;47650;49.848;9.620;2024-02-21T09:01:20;12.90;;;4.85;;
61741;SDS011;47650;49.848;9.620;2024-02-21T09:03:46;13.00;;;4.93;;
61741;SDS011;47650;49.848;9.620;2024-02-21T09:06:11;16.23;;;5.22;;
61741;SDS011;47650;49.848;9.620;2024-02-21T09:08:44;12.07;;;4.93;;
61741;SDS011;47650;49.848;9.620;2024-02-21T09:11:09;13.63;;;4.53;;
61741;SDS011;47650;49.848;9.620;2024-02-21T09:13:37;11.45;;;5.25;;
61741;SDS011;47650;49.848;9.620;2024-02-21T09:16:02;12.48;;;5.47;;
61741;SDS011;47650;49.848;9.620;2024-02-21T09:18:28;12.15;;;5.28;;
61741;SDS011;47650;49.848;9.620;2024-02-21T09:20:53;14.27;;;5.57;;
61741;SDS011;47650;49.848;9.620;2024-02-21T09:23:28;14.75;;;5.65;;
61741;SDS011;47650;49.848;9.620;2024-02-21T09:25:57;15.07;;;6.07;;
61741;SDS011;47650;49.848;9.620;2024-02-21T09:28:23;17.40;;;6.35;;
61741;SDS011;47650;49.848;9.620;2024-02-21T09:30:48;14.77;;;6.80;;
61741;SDS011;47650;49.848;9.620;2024-02-21T09:33:14;14.52;;;6.55;;
61741;SDS011;47650;49.848;9.620;2024-02-21T09:35:40;16.10;;;6.00;;
61741;SDS011;47650;49.848;9.620;2024-02-21T09:38:05;12.13;;;5.55;;
61741;SDS011;47650;49.848;9.620;2024-02-21T09:40:30;13.40;;;5.95;;
61741;SDS011;47650;49.848;9.620;2024-02-21T09:43:03;12.60;;;5.15;;
61741;SDS011;47650;49.848;9.620;2024-02-21T09:45:32;16.38;;;5.50;;
61741;SDS011;47650;49.848;9.620;2024-02-21T09:48:14;11.18;;;4.18;;
61741;SDS011;47650;49.848;9.620;2024-02-21T09:50:50;11.60;;;4.95;;
61741;SDS011;47650;49.848;9.620;2024-02-21T09:53:16;10.82;;;5.00;;
61741;SDS011;47650;49.848;9.620;2024-02-21T09:55:44;11.10;;;4.45;;
61741;SDS011;47650;49.848;9.620;2024-02-21T09:58:11;9.07;;;3.67;;
61741;SDS011;47650;49.848;9.620;2024-02-21T10:00:36;12.93;;;4.07;;
61741;SDS011;47650;49.848;9.620;2024-02-21T10:03:02;11.10;;;3.78;;
61741;SDS011;47650;49.848;9.620;2024-02-21T10:05:34;10.07;;;3.90;;
61741;SDS011;47650;49.848;9.620;2024-02-21T10:08:00;11.60;;;4.25;;
61741;SDS011;47650;49.848;9.620;2024-02-21T10:10:26;11.43;;;4.00;;
61741;SDS011;47650;49.848;9.620;2024-02-21T10:12:52;12.13;;;3.50;;
61741;SDS011;47650;49.848;9.620;2024-02-21T10:15:21;12.63;;;3.78;;
61741;SDS011;47650;49.848;9.620;2024-02-21T10:17:49;8.05;;;2.95;;
61741;SDS011;47650;49.848;9.620;2024-02-21T10:20:14;11.02;;;4.05;;
61741;SDS011;47650;49.848;9.620;2024-02-21T10:22:41;11.25;;;3.83;;
61741;SDS011;47650;49.848;9.620;2024-02-21T10:25:08;10.73;;;4.40;;
61741;SDS011;47650;49.848;9.620;2024-02-21T10:27:34;8.45;;;3.28;;
61741;SDS011;47650;49.848;9.620;2024-02-21T10:30:06;6.63;;;3.00;;
61741;SDS011;47650;49.848;9.620;2024-02-21T10:32:33;8.55;;;3.22;;
61741;SDS011;47650;49.848;9.620;2024-02-21T10:35:02;9.50;;;3.20;;
61741;SDS011;47650;49.848;9.620;2024-02-21T10:37:33;10.75;;;3.65;;
61741;SDS011;47650;49.848;9.620;2024-02-21T10:39:59;11.05;;;3.50;;
61741;SDS011;47650;49.848;9.620;2024-02-21T10:42:28;10.73;;;3.40;;
61741;SDS011;47650;49.848;9.620;2024-02-21T10:45:00;7.93;;;3.28;;
61741;SDS011;47650;49.848;9.620;2024-02-21T10:47:29;12.02;;;3.22;;
61741;SDS011;47650;49.848;9.620;2024-02-21T10:50:03;7.70;;;2.53;;
61741;SDS011;47650;49.848;9.620;2024-02-21T10:52:40;11.90;;;3.25;;
61741;SDS011;47650;49.848;9.620;2024-02-21T10:55:20;6.65;;;2.45;;
61741;SDS011;47650;49.848;9.620;2024-02-21T10:57:52;8.10;;;2.90;;
61741;SDS011;47650;49.848;9.620;2024-02-21T11:00:18;8.80;;;2.75;;
61741;SDS011;47650;49.848;9.620;2024-02-21T11:02:44;11.23;;;2.70;;
61741;SDS011;47650;49.848;9.620;2024-02-21T11:05:11;7.47;;;2.97;;
61741;SDS011;47650;49.848;9.620;2024-02-21T11:07:37;5.00;;;2.28;;
61741;SDS011;47650;49.848;9.620;2024-02-21T11:10:02;11.38;;;3.53;;
61741;SDS011;47650;49.848;9.620;2024-02-21T11:12:31;11.50;;;2.72;;
61741;SDS011;47650;49.848;9.620;2024-02-21T11:15:04;8.13;;;2.85;;
61741;SDS011;47650;49.848;9.620;2024-02-21T11:20:12;10.85;;;2.90;;
61741;SDS011;47650;49.848;9.620;2024-02-21T11:22:41;5.82;;;2.30;;
61741;SDS011;47650;49.848;9.620;2024-02-21T11:25:08;5.38;;;2.28;;
61741;SDS011;47650;49.848;9.620;2024-02-21T11:27:36;6.00;;;2.38;;
61741;SDS011;47650;49.848;9.620;2024-02-21T11:32:29;9.60;;;2.95;;
61741;SDS011;47650;49.848;9.620;2024-02-21T11:35:00;11.13;;;2.50;;
61741;SDS011;47650;49.848;9.620;2024-02-21T11:40:02;7.50;;;3.17;;
61741;SDS011;47650;49.848;9.620;2024-02-21T11:42:28;6.60;;;2.70;;
61741;SDS011;47650;49.848;9.620;2024-02-21T11:44:54;8.27;;;2.60;;
61741;SDS011;47650;49.848;9.620;2024-02-21T11:47:24;8.65;;;2.67;;
61741;SDS011;47650;49.848;9.620;2024-02-21T11:49:49;6.32;;;2.20;;
61741;SDS011;47650;49.848;9.620;2024-02-21T11:52:24;8.93;;;2.83;;
61741;SDS011;47650;49.848;9.620;2024-02-21T11:54:53;7.72;;;2.30;;
61741;SDS011;47650;49.848;9.620;2024-02-21T11:57:20;7.85;;;2.55;;
61741;SDS011;47650;49.848;9.620;2024-02-21T11:59:45;6.63;;;2.40;;
61741;SDS011;47650;49.848;9.620;2024-02-21T12:02:19;7.18;;;2.53;;
61741;SDS011;47650;49.848;9.620;2024-02-21T12:04:46;8.90;;;2.92;;
61741;SDS011;47650;49.848;9.620;2024-02-21T12:07:14;7.93;;;2.90;;
61741;SDS011;47650;49.848;9.620;2024-02-21T12:09:41;9.65;;;3.63;;
61741;SDS011;47650;49.848;9.620;2024-02-21T12:12:10;7.07;;;2.65;;
61741;SDS011;47650;49.848;9.620;2024-02-21T12:14:37;8.82;;;3.05;;
61741;SDS011;47650;49.848;9.620;2024-02-21T12:17:03;6.18;;;2.97;;
61741;SDS011;47650;49.848;9.620;2024-02-21T12:19:32;9.38;;;2.60;;
61741;SDS011;47650;49.848;9.620;2024-02-21T12:21:58;5.65;;;2.20;;
61741;SDS011;47650;49.848;9.620;2024-02-21T12:24:25;6.30;;;1.88;;
61741;SDS011;47650;49.848;9.620;2024-02-21T12:26:54;7.40;;;2.40;;
61741;SDS011;47650;49.848;9.620;2024-02-21T12:29:21;7.28;;;2.58;;
61741;SDS011;47650;49.848;9.620;2024-02-21T12:31:48;5.55;;;2.03;;
61741;SDS011;47650;49.848;9.620;2024-02-21T12:34:15;7.80;;;2.72;;
61741;SDS011;47650;49.848;9.620;2024-02-21T12:36:41;6.68;;;2.15;;
61741;SDS011;47650;49.848;9.620;2024-02-21T12:39:19;7.15;;;2.53;;
61741;SDS011;47650;49.848;9.620;2024-02-21T12:41:45;9.07;;;2.72;;
61741;SDS011;47650;49.848;9.620;2024-02-21T12:44:11;6.65;;;2.35;;
61741;SDS011;47650;49.848;9.620;2024-02-21T12:46:37;6.55;;;2.55;;
61741;SDS011;47650;49.848;9.620;2024-02-21T12:49:03;8.75;;;2.78;;
61741;SDS011;47650;49.848;9.620;2024-02-21T12:51:29;7.43;;;3.35;;
61741;SDS011;47650;49.848;9.620;2024-02-21T12:53:55;7.32;;;3.28;;
61741;SDS011;47650;49.848;9.620;2024-02-21T12:56:21;8.70;;;2.70;;
61741;SDS011;47650;49.848;9.620;2024-02-21T12:58:48;6.10;;;2.08;;
61741;SDS011;47650;49.848;9.620;2024-02-21T13:01:14;10.25;;;3.38;;
61741;SDS011;47650;49.848;9.620;2024-02-21T13:03:39;8.23;;;2.28;;
61741;SDS011;47650;49.848;9.620;2024-02-21T13:06:05;10.52;;;2.78;;
61741;SDS011;47650;49.848;9.620;2024-02-21T13:08:31;8.52;;;2.60;;
61741;SDS011;47650;49.848;9.620;2024-02-21T13:10:56;8.43;;;3.30;;
61741;SDS011;47650;49.848;9.620;2024-02-21T13:13:22;8.68;;;3.42;;
61741;SDS011;47650;49.848;9.620;2024-02-21T13:15:47;6.57;;;2.45;;
61741;SDS011;47650;49.848;9.620;2024-02-21T13:18:13;7.85;;;2.90;;
61741;SDS011;47650;49.848;9.620;2024-02-21T13:20:38;9.30;;;3.13;;
61741;SDS011;47650;49.848;9.620;2024-02-21T13:23:03;9.48;;;3.75;;
61741;SDS011;47650;49.848;9.620;2024-02-21T13:25:28;9.98;;;3.50;;
61741;SDS011;47650;49.848;9.620;2024-02-21T13:27:55;8.48;;;3.15;;
61741;SDS011;47650;49.848;9.620;2024-02-21T13:30:22;9.25;;;3.13;;
61741;SDS011;47650;49.848;9.620;2024-02-21T13:32:47;5.82;;;2.42;;
61741;SDS011;47650;49.848;9.620;2024-02-21T13:35:13;7.68;;;2.33;;
61741;SDS011;47650;49.848;9.620;2024-02-21T13:37:40;6.50;;;2.47;;
61741;SDS011;47650;49.848;9.620;2024-02-21T13:40:06;7.47;;;2.45;;
61741;SDS011;47650;49.848;9.620;2024-02-21T13:42:33;7.00;;;2.30;;
61741;SDS011;47650;49.848;9.620;2024-02-21T13:44:59;5.45;;;2.50;;
61741;SDS011;47650;49.848;9.620;2024-02-21T13:47:25;9.30;;;2.55;;
61741;SDS011;47650;49.848;9.620;2024-02-21T13:49:51;8.18;;;3.10;;
61741;SDS011;47650;49.848;9.620;2024-02-21T13:52:18;8.20;;;3.05;;
61741;SDS011;47650;49.848;9.620;2024-02-21T13:54:47;8.85;;;3.20;;
61741;SDS011;47650;49.848;9.620;2024-02-21T13:57:12;7.10;;;3.28;;
61741;SDS011;47650;49.848;9.620;2024-02-21T13:59:39;6.43;;;2.53;;
61741;SDS011;47650;49.848;9.620;2024-02-21T14:02:04;6.85;;;2.70;;
61741;SDS011;47650;49.848;9.620;2024-02-21T14:04:32;13.45;;;3.10;;
61741;SDS011;47650;49.848;9.620;2024-02-21T14:06:57;7.68;;;2.63;;
61741;SDS011;47650;49.848;9.620;2024-02-21T14:09:22;7.45;;;2.60;;
61741;SDS011;47650;49.848;9.620;2024-02-21T14:11:49;6.95;;;2.33;;
61741;SDS011;47650;49.848;9.620;2024-02-21T14:14:15;6.22;;;2.35;;
61741;SDS011;47650;49.848;9.620;2024-02-21T14:16:40;8.30;;;2.30;;
61741;SDS011;47650;49.848;9.620;2024-02-21T14:19:06;7.22;;;2.35;;
61741;SDS011;47650;49.848;9.620;2024-02-21T14:21:35;7.50;;;2.42;;
61741;SDS011;47650;49.848;9.620;2024-02-21T14:24:02;9.00;;;2.58;;
61741;SDS011;47650;49.848;9.620;2024-02-21T14:26:28;9.15;;;2.25;;
61741;SDS011;47650;49.848;9.620;2024-02-21T14:28:58;9.32;;;2.30;;
61741;SDS011;47650;49.848;9.620;2024-02-21T14:31:24;7.70;;;2.67;;
61741;SDS011;47650;49.848;9.620;2024-02-21T14:33:50;8.45;;;2.58;;
61741;SDS011;47650;49.848;9.620;2024-02-21T14:36:15;7.40;;;2.40;;
61741;SDS011;47650;49.848;9.620;2024-02-21T14:38:41;6.03;;;2.50;;
61741;SDS011;47650;49.848;9.620;2024-02-21T14:41:09;6.10;;;2.42;;